sensor_id;sensor_type;location;lat;lon;timestamp;temperature;humidity
38380;DHT22;38377;47.418;18.882;2023-08-20T00:01:29;19.80;99.90
38380;DHT22;38377;47.418;18.882;2023-08-20T00:03:55;19.80;99.90
38380;DHT22;38377;47.418;18.882;2023-08-20T00:06:22;19.80;99.90
38380;DHT22;38377;47.418;18.882;2023-08-20T00:08:48;19.70;99.90
38380;DHT22;38377;47.418;18.882;2023-08-20T00:11:14;19.70;99.90
38380;DHT22;38377;47.418;18.882;2023-08-20T00:13:41;19.60;99.90
38380;DHT22;38377;47.418;18.882;2023-08-20T00:16:07;19.60;99.90
38380;DHT22;38377;47.418;18.882;2023-08-20T00:18:33;19.50;99.90
38380;DHT22;38377;47.418;18.882;2023-08-20T00:20:59;19.50;99.90
38380;DHT22;38377;47.418;18.882;2023-08-20T00:23:26;19.40;99.90
38380;DHT22;38377;47.418;18.882;2023-08-20T00:25:52;19.40;99.90
38380;DHT22;38377;47.418;18.882;2023-08-20T00:28:19;19.30;99.90
38380;DHT22;38377;47.418;18.882;2023-08-20T00:30:45;19.40;99.90
38380;DHT22;38377;47.418;18.882;2023-08-20T00:33:11;19.30;99.90
38380;DHT22;38377;47.418;18.882;2023-08-20T00:35:37;19.40;99.90
38380;DHT22;38377;47.418;18.882;2023-08-20T00:38:03;19.40;99.90
38380;DHT22;38377;47.418;18.882;2023-08-20T00:40:30;19.30;99.90
38380;DHT22;38377;47.418;18.882;2023-08-20T00:42:56;19.30;99.90
38380;DHT22;38377;47.418;18.882;2023-08-20T00:45:22;19.30;99.90
38380;DHT22;38377;47.418;18.882;2023-08-20T00:47:49;19.20;99.90
38380;DHT22;38377;47.418;18.882;2023-08-20T00:50:16;19.20;99.90
38380;DHT22;38377;47.418;18.882;2023-08-20T00:52:42;19.20;99.90
38380;DHT22;38377;47.418;18.882;2023-08-20T00:55:09;19.20;99.90
38380;DHT22;38377;47.418;18.882;2023-08-20T00:57:39;19.20;99.90
38380;DHT22;38377;47.418;18.882;2023-08-20T01:00:06;19.20;99.90
38380;DHT22;38377;47.418;18.882;2023-08-20T01:02:37;19.20;99.90
38380;DHT22;38377;47.418;18.882;2023-08-20T01:05:04;19.30;99.90
38380;DHT22;38377;47.418;18.882;2023-08-20T01:10:29;19.20;99.90
38380;DHT22;38377;47.418;18.882;2023-08-20T01:13:00;19.10;99.90
38380;DHT22;38377;47.418;18.882;2023-08-20T01:15:26;19.20;99.90
38380;DHT22;38377;47.418;18.882;2023-08-20T01:17:52;19.20;99.90
38380;DHT22;38377;47.418;18.882;2023-08-20T01:20:18;19.20;99.90
38380;DHT22;38377;47.418;18.882;2023-08-20T01:28:29;19.10;99.90
38380;DHT22;38377;47.418;18.882;2023-08-20T01:31:00;19.00;99.90
38380;DHT22;38377;47.418;18.882;2023-08-20T01:33:26;19.00;99.90
38380;DHT22;38377;47.418;18.882;2023-08-20T01:35:53;19.00;99.90
38380;DHT22;38377;47.418;18.882;2023-08-20T01:38:19;19.00;99.90
38380;DHT22;38377;47.418;18.882;2023-08-20T01:40:45;19.00;99.90
38380;DHT22;38377;47.418;18.882;2023-08-20T01:43:12;19.00;99.90
38380;DHT22;38377;47.418;18.882;2023-08-20T01:45:37;19.00;99.90
38380;DHT22;38377;47.418;18.882;2023-08-20T01:48:03;19.00;99.90
38380;DHT22;38377;47.418;18.882;2023-08-20T01:50:29;19.00;99.90
38380;DHT22;38377;47.418;18.882;2023-08-20T01:52:55;19.10;99.90
38380;DHT22;38377;47.418;18.882;2023-08-20T01:55:21;19.10;99.90
38380;DHT22;38377;47.418;18.882;2023-08-20T01:57:46;19.00;99.90
38380;DHT22;38377;47.418;18.882;2023-08-20T02:00:13;18.90;99.90
38380;DHT22;38377;47.418;18.882;2023-08-20T02:02:38;18.90;99.90
38380;DHT22;38377;47.418;18.882;2023-08-20T02:05:04;19.00;99.90
38380;DHT22;38377;47.418;18.882;2023-08-20T02:07:30;19.00;99.90
38380;DHT22;38377;47.418;18.882;2023-08-20T02:09:55;19.00;99.90
38380;DHT22;38377;47.418;18.882;2023-08-20T02:12:21;19.00;99.90
38380;DHT22;38377;47.418;18.882;2023-08-20T02:14:47;19.00;99.90
38380;DHT22;38377;47.418;18.882;2023-08-20T02:17:13;19.00;99.90
38380;DHT22;38377;47.418;18.882;2023-08-20T02:19:39;19.00;99.90
38380;DHT22;38377;47.418;18.882;2023-08-20T02:22:05;19.00;99.90
38380;DHT22;38377;47.418;18.882;2023-08-20T02:24:31;19.00;99.90
38380;DHT22;38377;47.418;18.882;2023-08-20T02:26:57;19.00;99.90
38380;DHT22;38377;47.418;18.882;2023-08-20T02:29:22;19.00;99.90
38380;DHT22;38377;47.418;18.882;2023-08-20T02:31:48;18.90;99.90
38380;DHT22;38377;47.418;18.882;2023-08-20T02:34:14;18.90;99.90
38380;DHT22;38377;47.418;18.882;2023-08-20T02:36:40;18.90;99.90
38380;DHT22;38377;47.418;18.882;2023-08-20T02:39:05;18.90;99.90
38380;DHT22;38377;47.418;18.882;2023-08-20T02:41:34;18.80;99.90
38380;DHT22;38377;47.418;18.882;2023-08-20T02:44:01;18.80;99.90
38380;DHT22;38377;47.418;18.882;2023-08-20T02:46:27;18.80;99.90
38380;DHT22;38377;47.418;18.882;2023-08-20T02:48:53;18.90;99.90
38380;DHT22;38377;47.418;18.882;2023-08-20T02:51:19;19.00;99.90
38380;DHT22;38377;47.418;18.882;2023-08-20T02:53:44;19.40;99.90
38380;DHT22;38377;47.418;18.882;2023-08-20T02:56:10;19.60;99.90
38380;DHT22;38377;47.418;18.882;2023-08-20T02:58:36;19.80;99.90
38380;DHT22;38377;47.418;18.882;2023-08-20T03:01:01;20.00;99.90
38380;DHT22;38377;47.418;18.882;2023-08-20T03:03:28;20.20;99.90
38380;DHT22;38377;47.418;18.882;2023-08-20T03:05:53;20.50;99.90
38380;DHT22;38377;47.418;18.882;2023-08-20T03:08:19;20.60;99.90
38380;DHT22;38377;47.418;18.882;2023-08-20T03:10:45;20.60;99.90
38380;DHT22;38377;47.418;18.882;2023-08-20T03:13:11;20.60;99.90
38380;DHT22;38377;47.418;18.882;2023-08-20T03:15:36;20.60;99.90
38380;DHT22;38377;47.418;18.882;2023-08-20T03:18:02;20.50;99.90
38380;DHT22;38377;47.418;18.882;2023-08-20T03:20:28;20.50;99.90
38380;DHT22;38377;47.418;18.882;2023-08-20T03:22:56;20.50;99.90
38380;DHT22;38377;47.418;18.882;2023-08-20T03:25:22;20.50;99.90
38380;DHT22;38377;47.418;18.882;2023-08-20T03:27:49;20.40;99.90
38380;DHT22;38377;47.418;18.882;2023-08-20T03:30:15;20.30;99.90
38380;DHT22;38377;47.418;18.882;2023-08-20T03:32:40;20.30;99.90
38380;DHT22;38377;47.418;18.882;2023-08-20T03:35:06;20.20;99.90
38380;DHT22;38377;47.418;18.882;2023-08-20T03:37:32;20.20;99.90
38380;DHT22;38377;47.418;18.882;2023-08-20T03:39:58;20.10;99.90
38380;DHT22;38377;47.418;18.882;2023-08-20T03:42:23;20.10;99.90
38380;DHT22;38377;47.418;18.882;2023-08-20T03:44:49;20.10;99.90
38380;DHT22;38377;47.418;18.882;2023-08-20T03:47:15;20.10;99.90
38380;DHT22;38377;47.418;18.882;2023-08-20T03:49:41;20.00;99.90
38380;DHT22;38377;47.418;18.882;2023-08-20T03:52:06;20.00;99.90
38380;DHT22;38377;47.418;18.882;2023-08-20T03:54:33;20.00;99.90
38380;DHT22;38377;47.418;18.882;2023-08-20T03:56:59;20.00;99.90
38380;DHT22;38377;47.418;18.882;2023-08-20T03:59:25;20.20;99.90
38380;DHT22;38377;47.418;18.882;2023-08-20T04:01:50;20.50;99.90
38380;DHT22;38377;47.418;18.882;2023-08-20T04:04:16;20.80;99.90
38380;DHT22;38377;47.418;18.882;2023-08-20T04:06:42;20.90;99.90
38380;DHT22;38377;47.418;18.882;2023-08-20T04:09:08;21.10;99.90
38380;DHT22;38377;47.418;18.882;2023-08-20T04:11:35;21.00;99.90
38380;DHT22;38377;47.418;18.882;2023-08-20T04:14:00;21.10;99.90
38380;DHT22;38377;47.418;18.882;2023-08-20T04:16:26;21.10;99.90
38380;DHT22;38377;47.418;18.882;2023-08-20T04:18:52;21.20;99.90
38380;DHT22;38377;47.418;18.882;2023-08-20T04:21:17;21.20;99.90
38380;DHT22;38377;47.418;18.882;2023-08-20T04:23:43;21.20;99.90
38380;DHT22;38377;47.418;18.882;2023-08-20T04:26:09;21.20;99.90
38380;DHT22;38377;47.418;18.882;2023-08-20T04:28:34;21.30;99.90
38380;DHT22;38377;47.418;18.882;2023-08-20T04:31:00;21.40;99.90
38380;DHT22;38377;47.418;18.882;2023-08-20T04:33:26;21.50;99.90
38380;DHT22;38377;47.418;18.882;2023-08-20T04:35:52;21.40;99.90
38380;DHT22;38377;47.418;18.882;2023-08-20T04:38:18;21.30;99.90
38380;DHT22;38377;47.418;18.882;2023-08-20T04:40:48;21.30;99.90
38380;DHT22;38377;47.418;18.882;2023-08-20T04:43:14;21.30;99.90
38380;DHT22;38377;47.418;18.882;2023-08-20T04:45:40;21.20;99.90
38380;DHT22;38377;47.418;18.882;2023-08-20T04:48:06;21.10;99.90
38380;DHT22;38377;47.418;18.882;2023-08-20T04:50:32;21.30;99.90
38380;DHT22;38377;47.418;18.882;2023-08-20T04:52:57;21.50;99.90
38380;DHT22;38377;47.418;18.882;2023-08-20T04:55:30;21.60;99.90
38380;DHT22;38377;47.418;18.882;2023-08-20T04:57:56;21.60;99.90
38380;DHT22;38377;47.418;18.882;2023-08-20T05:00:22;21.60;99.90
38380;DHT22;38377;47.418;18.882;2023-08-20T05:02:48;21.70;99.90
38380;DHT22;38377;47.418;18.882;2023-08-20T05:05:14;21.70;99.90
38380;DHT22;38377;47.418;18.882;2023-08-20T05:07:40;21.80;99.90
38380;DHT22;38377;47.418;18.882;2023-08-20T05:10:07;21.90;99.90
38380;DHT22;38377;47.418;18.882;2023-08-20T05:12:34;22.00;99.90
38380;DHT22;38377;47.418;18.882;2023-08-20T05:14:59;22.00;99.90
38380;DHT22;38377;47.418;18.882;2023-08-20T05:17:25;22.10;99.90
38380;DHT22;38377;47.418;18.882;2023-08-20T05:19:51;22.10;99.90
38380;DHT22;38377;47.418;18.882;2023-08-20T05:22:16;22.20;99.90
38380;DHT22;38377;47.418;18.882;2023-08-20T05:24:42;22.30;99.90
38380;DHT22;38377;47.418;18.882;2023-08-20T05:27:11;22.40;99.90
38380;DHT22;38377;47.418;18.882;2023-08-20T05:29:39;22.50;99.90
38380;DHT22;38377;47.418;18.882;2023-08-20T05:32:06;22.60;99.90
38380;DHT22;38377;47.418;18.882;2023-08-20T05:34:32;22.70;99.90
38380;DHT22;38377;47.418;18.882;2023-08-20T05:36:58;22.80;99.90
38380;DHT22;38377;47.418;18.882;2023-08-20T05:39:23;22.90;99.90
38380;DHT22;38377;47.418;18.882;2023-08-20T05:41:54;23.00;99.90
38380;DHT22;38377;47.418;18.882;2023-08-20T05:44:20;23.20;99.90
38380;DHT22;38377;47.418;18.882;2023-08-20T05:46:45;23.30;99.90
38380;DHT22;38377;47.418;18.882;2023-08-20T05:49:13;23.40;99.90
38380;DHT22;38377;47.418;18.882;2023-08-20T05:51:44;23.50;99.90
38380;DHT22;38377;47.418;18.882;2023-08-20T05:54:09;23.60;99.90
38380;DHT22;38377;47.418;18.882;2023-08-20T05:56:36;23.60;99.90
38380;DHT22;38377;47.418;18.882;2023-08-20T05:59:02;23.70;99.90
38380;DHT22;38377;47.418;18.882;2023-08-20T06:01:27;23.90;99.90
38380;DHT22;38377;47.418;18.882;2023-08-20T06:03:53;24.10;99.90
38380;DHT22;38377;47.418;18.882;2023-08-20T06:06:19;24.20;99.90
38380;DHT22;38377;47.418;18.882;2023-08-20T06:08:45;24.20;99.90
38380;DHT22;38377;47.418;18.882;2023-08-20T06:11:10;24.20;99.90
38380;DHT22;38377;47.418;18.882;2023-08-20T06:13:36;24.30;99.90
38380;DHT22;38377;47.418;18.882;2023-08-20T06:16:01;24.30;99.90
38380;DHT22;38377;47.418;18.882;2023-08-20T06:18:27;24.40;99.90
38380;DHT22;38377;47.418;18.882;2023-08-20T06:20:53;24.50;99.90
38380;DHT22;38377;47.418;18.882;2023-08-20T06:23:19;24.50;99.90
38380;DHT22;38377;47.418;18.882;2023-08-20T06:25:44;24.50;99.90
38380;DHT22;38377;47.418;18.882;2023-08-20T06:28:11;24.60;99.90
38380;DHT22;38377;47.418;18.882;2023-08-20T06:30:37;24.60;99.90
38380;DHT22;38377;47.418;18.882;2023-08-20T06:33:03;24.60;99.90
38380;DHT22;38377;47.418;18.882;2023-08-20T06:35:29;24.70;99.90
38380;DHT22;38377;47.418;18.882;2023-08-20T06:37:54;24.70;99.90
38380;DHT22;38377;47.418;18.882;2023-08-20T06:40:20;24.80;99.90
38380;DHT22;38377;47.418;18.882;2023-08-20T06:42:46;24.90;99.90
38380;DHT22;38377;47.418;18.882;2023-08-20T06:45:11;25.00;99.90
38380;DHT22;38377;47.418;18.882;2023-08-20T06:47:37;25.10;99.90
38380;DHT22;38377;47.418;18.882;2023-08-20T06:50:03;25.30;99.90
38380;DHT22;38377;47.418;18.882;2023-08-20T06:52:28;25.40;99.90
38380;DHT22;38377;47.418;18.882;2023-08-20T06:54:54;25.50;99.90
38380;DHT22;38377;47.418;18.882;2023-08-20T06:57:20;25.60;99.90
38380;DHT22;38377;47.418;18.882;2023-08-20T06:59:46;25.70;99.90
38380;DHT22;38377;47.418;18.882;2023-08-20T07:02:11;25.80;99.90
38380;DHT22;38377;47.418;18.882;2023-08-20T07:04:37;25.90;99.90
38380;DHT22;38377;47.418;18.882;2023-08-20T07:07:03;26.00;99.90
38380;DHT22;38377;47.418;18.882;2023-08-20T07:09:32;26.10;99.90
38380;DHT22;38377;47.418;18.882;2023-08-20T07:11:57;26.20;99.90
38380;DHT22;38377;47.418;18.882;2023-08-20T07:14:23;26.40;99.90
38380;DHT22;38377;47.418;18.882;2023-08-20T07:16:49;26.50;99.90
38380;DHT22;38377;47.418;18.882;2023-08-20T07:19:14;26.70;99.90
38380;DHT22;38377;47.418;18.882;2023-08-20T07:21:40;26.90;99.90
38380;DHT22;38377;47.418;18.882;2023-08-20T07:24:06;27.00;99.90
38380;DHT22;38377;47.418;18.882;2023-08-20T07:26:35;27.20;99.90
38380;DHT22;38377;47.418;18.882;2023-08-20T07:29:00;27.40;99.90
38380;DHT22;38377;47.418;18.882;2023-08-20T07:31:28;27.60;99.90
38380;DHT22;38377;47.418;18.882;2023-08-20T07:33:54;27.70;99.90
38380;DHT22;38377;47.418;18.882;2023-08-20T07:36:22;27.80;99.90
38380;DHT22;38377;47.418;18.882;2023-08-20T07:38:48;28.00;99.90
38380;DHT22;38377;47.418;18.882;2023-08-20T07:41:14;28.10;99.90
38380;DHT22;38377;47.418;18.882;2023-08-20T07:43:41;28.30;99.90
38380;DHT22;38377;47.418;18.882;2023-08-20T07:46:07;28.50;99.90
38380;DHT22;38377;47.418;18.882;2023-08-20T07:48:34;28.50;99.90
38380;DHT22;38377;47.418;18.882;2023-08-20T07:51:01;28.40;99.90
38380;DHT22;38377;47.418;18.882;2023-08-20T07:53:26;28.40;99.90
38380;DHT22;38377;47.418;18.882;2023-08-20T07:55:52;28.60;99.90
38380;DHT22;38377;47.418;18.882;2023-08-20T07:58:18;28.70;99.90
38380;DHT22;38377;47.418;18.882;2023-08-20T08:00:44;28.90;99.90
38380;DHT22;38377;47.418;18.882;2023-08-20T08:03:09;28.80;99.90
38380;DHT22;38377;47.418;18.882;2023-08-20T08:05:35;28.80;99.90
38380;DHT22;38377;47.418;18.882;2023-08-20T08:08:02;28.70;99.90
38380;DHT22;38377;47.418;18.882;2023-08-20T08:10:28;28.60;99.90
38380;DHT22;38377;47.418;18.882;2023-08-20T08:12:54;28.80;99.90
38380;DHT22;38377;47.418;18.882;2023-08-20T08:15:20;28.80;99.90
38380;DHT22;38377;47.418;18.882;2023-08-20T08:17:46;28.80;99.90
38380;DHT22;38377;47.418;18.882;2023-08-20T08:20:11;28.80;99.90
38380;DHT22;38377;47.418;18.882;2023-08-20T08:22:38;28.70;99.90
38380;DHT22;38377;47.418;18.882;2023-08-20T08:25:04;28.80;99.90
38380;DHT22;38377;47.418;18.882;2023-08-20T08:27:30;28.80;99.90
38380;DHT22;38377;47.418;18.882;2023-08-20T08:29:57;29.00;99.90
38380;DHT22;38377;47.418;18.882;2023-08-20T08:32:23;29.10;99.90
38380;DHT22;38377;47.418;18.882;2023-08-20T08:34:48;29.10;99.40
38380;DHT22;38377;47.418;18.882;2023-08-20T08:37:14;29.20;99.40
38380;DHT22;38377;47.418;18.882;2023-08-20T08:39:41;29.20;97.70
38380;DHT22;38377;47.418;18.882;2023-08-20T08:42:07;29.20;98.70
38380;DHT22;38377;47.418;18.882;2023-08-20T08:44:37;29.20;98.50
38380;DHT22;38377;47.418;18.882;2023-08-20T08:47:04;29.30;97.60
38380;DHT22;38377;47.418;18.882;2023-08-20T08:49:33;29.20;97.90
38380;DHT22;38377;47.418;18.882;2023-08-20T08:51:59;29.20;97.10
38380;DHT22;38377;47.418;18.882;2023-08-20T08:54:26;29.20;96.40
38380;DHT22;38377;47.418;18.882;2023-08-20T08:56:52;29.20;97.30
38380;DHT22;38377;47.418;18.882;2023-08-20T08:59:19;29.40;98.10
38380;DHT22;38377;47.418;18.882;2023-08-20T09:01:44;29.70;97.40
38380;DHT22;38377;47.418;18.882;2023-08-20T09:04:10;29.80;96.20
38380;DHT22;38377;47.418;18.882;2023-08-20T09:06:49;29.80;96.30
38380;DHT22;38377;47.418;18.882;2023-08-20T09:09:16;29.70;96.30
38380;DHT22;38377;47.418;18.882;2023-08-20T09:11:42;29.70;96.10
38380;DHT22;38377;47.418;18.882;2023-08-20T09:14:08;29.80;95.50
38380;DHT22;38377;47.418;18.882;2023-08-20T09:16:45;29.80;95.50
38380;DHT22;38377;47.418;18.882;2023-08-20T09:19:11;29.70;94.80
38380;DHT22;38377;47.418;18.882;2023-08-20T09:21:36;29.60;94.90
38380;DHT22;38377;47.418;18.882;2023-08-20T09:24:02;29.70;95.20
38380;DHT22;38377;47.418;18.882;2023-08-20T09:26:28;29.90;94.80
38380;DHT22;38377;47.418;18.882;2023-08-20T09:28:57;29.90;95.10
38380;DHT22;38377;47.418;18.882;2023-08-20T09:31:37;29.90;95.80
38380;DHT22;38377;47.418;18.882;2023-08-20T09:34:03;30.20;95.70
38380;DHT22;38377;47.418;18.882;2023-08-20T09:36:31;30.50;95.30
38380;DHT22;38377;47.418;18.882;2023-08-20T09:38:57;30.70;95.00
38380;DHT22;38377;47.418;18.882;2023-08-20T09:41:26;30.40;92.40
38380;DHT22;38377;47.418;18.882;2023-08-20T09:43:57;30.20;92.80
38380;DHT22;38377;47.418;18.882;2023-08-20T09:46:27;30.20;92.20
38380;DHT22;38377;47.418;18.882;2023-08-20T09:48:56;30.30;93.00
38380;DHT22;38377;47.418;18.882;2023-08-20T09:51:27;30.40;92.60
38380;DHT22;38377;47.418;18.882;2023-08-20T09:56:30;30.50;92.60
38380;DHT22;38377;47.418;18.882;2023-08-20T09:59:00;30.70;93.70
38380;DHT22;38377;47.418;18.882;2023-08-20T10:01:27;30.80;92.60
38380;DHT22;38377;47.418;18.882;2023-08-20T10:03:54;30.90;93.70
38380;DHT22;38377;47.418;18.882;2023-08-20T10:06:20;31.00;93.40
38380;DHT22;38377;47.418;18.882;2023-08-20T10:08:46;31.20;92.80
38380;DHT22;38377;47.418;18.882;2023-08-20T10:11:12;31.40;91.50
38380;DHT22;38377;47.418;18.882;2023-08-20T10:13:38;31.50;90.10
38380;DHT22;38377;47.418;18.882;2023-08-20T10:16:04;31.50;88.00
38380;DHT22;38377;47.418;18.882;2023-08-20T10:18:30;31.40;87.80
38380;DHT22;38377;47.418;18.882;2023-08-20T10:21:01;31.50;86.20
38380;DHT22;38377;47.418;18.882;2023-08-20T10:23:27;31.60;87.20
38380;DHT22;38377;47.418;18.882;2023-08-20T10:25:54;31.70;87.60
38380;DHT22;38377;47.418;18.882;2023-08-20T10:28:25;31.60;86.80
38380;DHT22;38377;47.418;18.882;2023-08-20T10:33:32;31.50;87.00
38380;DHT22;38377;47.418;18.882;2023-08-20T10:36:12;31.60;90.60
38380;DHT22;38377;47.418;18.882;2023-08-20T10:38:38;31.80;88.80
38380;DHT22;38377;47.418;18.882;2023-08-20T10:41:08;32.00;88.30
38380;DHT22;38377;47.418;18.882;2023-08-20T10:43:39;31.90;87.20
38380;DHT22;38377;47.418;18.882;2023-08-20T10:46:17;31.80;87.90
38380;DHT22;38377;47.418;18.882;2023-08-20T10:48:48;31.90;88.50
38380;DHT22;38377;47.418;18.882;2023-08-20T10:51:16;31.90;86.70
38380;DHT22;38377;47.418;18.882;2023-08-20T10:54:05;31.90;86.90
38380;DHT22;38377;47.418;18.882;2023-08-20T10:56:47;32.00;88.40
38380;DHT22;38377;47.418;18.882;2023-08-20T10:59:25;31.90;87.40
38380;DHT22;38377;47.418;18.882;2023-08-20T11:01:53;31.90;87.60
38380;DHT22;38377;47.418;18.882;2023-08-20T11:04:21;31.80;85.70
38380;DHT22;38377;47.418;18.882;2023-08-20T11:06:51;31.80;86.90
38380;DHT22;38377;47.418;18.882;2023-08-20T11:09:18;31.90;87.10
38380;DHT22;38377;47.418;18.882;2023-08-20T11:11:44;32.00;85.80
38380;DHT22;38377;47.418;18.882;2023-08-20T11:14:14;31.50;86.30
38380;DHT22;38377;47.418;18.882;2023-08-20T11:16:41;31.40;87.80
38380;DHT22;38377;47.418;18.882;2023-08-20T11:19:07;31.50;88.00
38380;DHT22;38377;47.418;18.882;2023-08-20T11:21:37;31.60;86.80
38380;DHT22;38377;47.418;18.882;2023-08-20T11:24:04;31.80;88.50
38380;DHT22;38377;47.418;18.882;2023-08-20T11:26:30;32.00;85.70
38380;DHT22;38377;47.418;18.882;2023-08-20T11:28:56;32.20;86.70
38380;DHT22;38377;47.418;18.882;2023-08-20T11:31:22;32.30;83.60
38380;DHT22;38377;47.418;18.882;2023-08-20T11:33:49;32.00;82.80
38380;DHT22;38377;47.418;18.882;2023-08-20T11:36:19;32.00;84.90
38380;DHT22;38377;47.418;18.882;2023-08-20T11:38:52;32.10;83.60
38380;DHT22;38377;47.418;18.882;2023-08-20T11:41:22;32.10;79.60
38380;DHT22;38377;47.418;18.882;2023-08-20T11:43:49;31.80;82.20
38380;DHT22;38377;47.418;18.882;2023-08-20T11:46:18;31.80;84.50
38380;DHT22;38377;47.418;18.882;2023-08-20T11:49:06;31.80;84.20
38380;DHT22;38377;47.418;18.882;2023-08-20T11:51:42;31.80;86.10
38380;DHT22;38377;47.418;18.882;2023-08-20T11:54:10;31.80;82.80
38380;DHT22;38377;47.418;18.882;2023-08-20T11:56:46;31.70;82.00
38380;DHT22;38377;47.418;18.882;2023-08-20T11:59:14;31.70;83.10
38380;DHT22;38377;47.418;18.882;2023-08-20T12:01:40;31.70;84.50
38380;DHT22;38377;47.418;18.882;2023-08-20T12:04:10;31.80;83.90
38380;DHT22;38377;47.418;18.882;2023-08-20T12:06:37;31.80;83.10
38380;DHT22;38377;47.418;18.882;2023-08-20T12:09:21;31.90;82.90
38380;DHT22;38377;47.418;18.882;2023-08-20T12:11:51;32.00;85.50
38380;DHT22;38377;47.418;18.882;2023-08-20T12:14:20;32.00;82.60
38380;DHT22;38377;47.418;18.882;2023-08-20T12:16:46;32.00;84.60
38380;DHT22;38377;47.418;18.882;2023-08-20T12:19:12;32.00;81.20
38380;DHT22;38377;47.418;18.882;2023-08-20T12:21:39;32.00;83.00
38380;DHT22;38377;47.418;18.882;2023-08-20T12:24:07;32.10;83.10
38380;DHT22;38377;47.418;18.882;2023-08-20T12:26:32;32.00;81.20
38380;DHT22;38377;47.418;18.882;2023-08-20T12:28:58;32.10;80.30
38380;DHT22;38377;47.418;18.882;2023-08-20T12:31:24;32.10;82.30
38380;DHT22;38377;47.418;18.882;2023-08-20T12:33:50;32.10;79.30
38380;DHT22;38377;47.418;18.882;2023-08-20T12:36:15;32.20;74.90
38380;DHT22;38377;47.418;18.882;2023-08-20T12:38:41;32.10;78.20
38380;DHT22;38377;47.418;18.882;2023-08-20T12:41:07;32.00;80.10
38380;DHT22;38377;47.418;18.882;2023-08-20T12:43:33;32.00;75.00
38380;DHT22;38377;47.418;18.882;2023-08-20T12:45:58;32.10;75.70
38380;DHT22;38377;47.418;18.882;2023-08-20T12:48:24;32.10;73.30
38380;DHT22;38377;47.418;18.882;2023-08-20T12:50:50;32.00;73.80
38380;DHT22;38377;47.418;18.882;2023-08-20T12:53:15;32.00;76.30
38380;DHT22;38377;47.418;18.882;2023-08-20T12:55:41;32.00;76.40
38380;DHT22;38377;47.418;18.882;2023-08-20T12:58:07;31.90;73.80
38380;DHT22;38377;47.418;18.882;2023-08-20T13:00:33;31.90;74.50
38380;DHT22;38377;47.418;18.882;2023-08-20T13:02:59;31.90;72.90
38380;DHT22;38377;47.418;18.882;2023-08-20T13:05:26;31.90;75.40
38380;DHT22;38377;47.418;18.882;2023-08-20T13:07:52;31.90;79.50
38380;DHT22;38377;47.418;18.882;2023-08-20T13:10:19;31.90;74.50
38380;DHT22;38377;47.418;18.882;2023-08-20T13:12:50;32.00;79.50
38380;DHT22;38377;47.418;18.882;2023-08-20T13:15:17;32.00;78.30
38380;DHT22;38377;47.418;18.882;2023-08-20T13:17:46;32.00;73.70
38380;DHT22;38377;47.418;18.882;2023-08-20T13:20:12;32.00;75.20
38380;DHT22;38377;47.418;18.882;2023-08-20T13:22:38;32.10;74.10
38380;DHT22;38377;47.418;18.882;2023-08-20T13:25:04;32.10;74.80
38380;DHT22;38377;47.418;18.882;2023-08-20T13:27:30;32.20;74.90
38380;DHT22;38377;47.418;18.882;2023-08-20T13:29:56;32.20;75.20
38380;DHT22;38377;47.418;18.882;2023-08-20T13:32:22;32.10;76.90
38380;DHT22;38377;47.418;18.882;2023-08-20T13:34:49;32.00;77.30
38380;DHT22;38377;47.418;18.882;2023-08-20T13:37:15;31.90;78.30
38380;DHT22;38377;47.418;18.882;2023-08-20T13:39:41;31.80;75.50
38380;DHT22;38377;47.418;18.882;2023-08-20T13:42:06;31.70;77.00
38380;DHT22;38377;47.418;18.882;2023-08-20T13:44:35;31.70;76.10
38380;DHT22;38377;47.418;18.882;2023-08-20T13:47:01;31.80;75.30
38380;DHT22;38377;47.418;18.882;2023-08-20T13:49:26;31.80;76.90
38380;DHT22;38377;47.418;18.882;2023-08-20T13:51:54;31.80;77.40
38380;DHT22;38377;47.418;18.882;2023-08-20T13:54:20;31.80;75.80
38380;DHT22;38377;47.418;18.882;2023-08-20T13:56:45;31.90;78.20
38380;DHT22;38377;47.418;18.882;2023-08-20T13:59:11;31.80;75.40
38380;DHT22;38377;47.418;18.882;2023-08-20T14:01:37;31.80;75.90
38380;DHT22;38377;47.418;18.882;2023-08-20T14:04:03;31.80;74.60
38380;DHT22;38377;47.418;18.882;2023-08-20T14:06:29;31.70;78.40
38380;DHT22;38377;47.418;18.882;2023-08-20T14:08:56;31.70;74.70
38380;DHT22;38377;47.418;18.882;2023-08-20T14:11:22;31.80;78.50
38380;DHT22;38377;47.418;18.882;2023-08-20T14:13:48;31.80;76.50
38380;DHT22;38377;47.418;18.882;2023-08-20T14:16:14;31.70;78.30
38380;DHT22;38377;47.418;18.882;2023-08-20T14:18:40;31.70;76.20
38380;DHT22;38377;47.418;18.882;2023-08-20T14:21:07;31.70;76.30
38380;DHT22;38377;47.418;18.882;2023-08-20T14:23:33;31.60;75.40
38380;DHT22;38377;47.418;18.882;2023-08-20T14:26:00;31.40;76.00
38380;DHT22;38377;47.418;18.882;2023-08-20T14:28:26;31.40;76.30
38380;DHT22;38377;47.418;18.882;2023-08-20T14:30:52;31.50;77.20
38380;DHT22;38377;47.418;18.882;2023-08-20T14:33:20;31.40;76.80
38380;DHT22;38377;47.418;18.882;2023-08-20T14:35:46;31.40;77.40
38380;DHT22;38377;47.418;18.882;2023-08-20T14:38:12;31.40;77.70
38380;DHT22;38377;47.418;18.882;2023-08-20T14:40:41;31.40;77.70
38380;DHT22;38377;47.418;18.882;2023-08-20T14:43:08;31.40;75.40
38380;DHT22;38377;47.418;18.882;2023-08-20T14:45:34;31.20;76.00
38380;DHT22;38377;47.418;18.882;2023-08-20T14:47:59;31.20;76.00
38380;DHT22;38377;47.418;18.882;2023-08-20T14:50:25;31.30;78.40
38380;DHT22;38377;47.418;18.882;2023-08-20T14:52:51;31.30;76.00
38380;DHT22;38377;47.418;18.882;2023-08-20T14:55:19;31.30;75.70
38380;DHT22;38377;47.418;18.882;2023-08-20T14:57:45;31.30;78.00
38380;DHT22;38377;47.418;18.882;2023-08-20T15:00:11;31.30;76.60
38380;DHT22;38377;47.418;18.882;2023-08-20T15:02:44;31.20;77.70
38380;DHT22;38377;47.418;18.882;2023-08-20T15:05:10;31.20;76.50
38380;DHT22;38377;47.418;18.882;2023-08-20T15:07:36;31.20;75.10
38380;DHT22;38377;47.418;18.882;2023-08-20T15:10:03;31.10;74.50
38380;DHT22;38377;47.418;18.882;2023-08-20T15:12:34;31.00;76.20
38380;DHT22;38377;47.418;18.882;2023-08-20T15:15:04;31.00;77.80
38380;DHT22;38377;47.418;18.882;2023-08-20T15:17:31;31.00;77.00
38380;DHT22;38377;47.418;18.882;2023-08-20T15:20:00;31.10;78.70
38380;DHT22;38377;47.418;18.882;2023-08-20T15:22:25;31.00;78.00
38380;DHT22;38377;47.418;18.882;2023-08-20T15:24:52;31.00;74.80
38380;DHT22;38377;47.418;18.882;2023-08-20T15:27:18;31.00;75.50